Latest Weather Observations for Eildon Fire Tower

IDV60801

Issued at 7:05 pm EST Tuesday 16 September 2014 (issued every 30 minutes, with the page automatically refreshed every 10 minutes)

About weather observations | Map of weather stations | Latest weather observations for VIC | Other Formats
Station Details ID: 088164 Name: EILDON FIRE TOWER Lat: -37.21 Lon: 145.84 Height: 637.0 m
Data from the previous 72 hours. | See also: Recent months at Eildon Fire Tower
Date/Time
EST
Temp
°C
App
Temp
°C
Dew
Point
Rel
Hum
%
Delta-T
°C
Wind Press
QNH
hPa
Press
MSL
hPa
Rain
since 9 am
mm
Dir
 
Spd
km/h
Gust
km/h
Spd
kts
Gust
kts
16/07:00pm 7.9 3.4 7.0 94 0.4 WSW 20 30 11 16 - - 1.0
16/06:30pm 8.1 2.5 7.0 93 0.5 WSW 26 39 14 21 - - 1.0
16/06:00pm 7.9 2.3 7.0 94 0.4 WSW 26 41 14 22 - - 1.0
16/05:30pm 8.1 1.4 7.5 96 0.3 WSW 32 48 17 26 - - 1.0
16/05:21pm 8.4 2.3 8.1 98 0.1 SW 30 48 16 26 - - 1.0
16/05:00pm 9.3 3.4 9.0 98 0.2 WSW 30 46 16 25 - - 1.0
16/04:30pm 10.2 5.5 9.3 94 0.5 W 24 32 13 17 - - 0.2
16/04:00pm 10.8 5.3 9.2 90 0.8 W 28 35 15 19 - - 0.0
16/03:30pm 11.6 5.4 9.3 86 1.2 WSW 32 41 17 22 - - 0.0
16/03:00pm 11.2 4.9 8.8 85 1.2 W 32 41 17 22 - - 0.0
16/02:30pm 11.8 6.4 9.5 86 1.2 W 28 39 15 21 - - 0.0
16/02:00pm 11.2 5.7 9.1 87 1.1 WSW 28 41 15 22 - - 0.0
16/01:30pm 11.7 6.4 9.8 88 1.0 WSW 28 37 15 20 - - 0.0
16/01:00pm 11.2 5.7 9.3 88 1.0 WSW 28 37 15 20 - - 0.0
16/12:30pm 12.2 6.3 9.2 82 1.6 W 30 41 16 22 - - 0.0
16/12:00pm 13.8 10.0 11.1 84 1.5 WSW 22 33 12 18 - - 0.0
16/11:30am 13.4 9.2 9.8 79 1.9 W 22 33 12 18 - - 0.0
16/11:00am 12.9 9.1 9.2 78 1.9 W 19 24 10 13 - - 0.0
16/10:30am 12.4 8.4 8.1 75 2.2 W 19 24 10 13 - - 0.0
16/10:00am 11.9 7.8 8.0 77 2.0 W 19 24 10 13 - - 0.0
16/09:30am 11.5 8.4 7.4 76 2.0 WSW 13 17 7 9 - - 0.0
16/09:00am 11.1 7.8 6.6 74 2.2 WSW 13 15 7 8 - - 0.0
16/08:30am 11.9 9.4 6.4 69 2.7 W 9 9 5 5 - - 0.0
16/08:00am 14.5 12.6 4.8 52 4.7 NE 4 7 2 4 - - 0.0
16/07:30am 13.9 12.0 6.7 62 3.6 ENE 6 7 3 4 - - 0.0
16/07:00am 13.1 10.6 4.8 57 4.0 NNE 7 11 4 6 - - 0.0
16/06:30am 12.4 9.1 4.4 58 3.8 NNE 11 17 6 9 - - 0.0
16/06:00am 12.5 9.5 4.0 56 4.0 NE 9 19 5 10 - - 0.0
16/05:30am 12.8 9.4 4.0 55 4.1 NE 11 17 6 9 - - 0.0
16/05:00am 12.5 8.7 3.7 55 4.1 ENE 13 17 7 9 - - 0.0
16/04:30am 12.9 8.7 3.8 54 4.3 ENE 15 17 8 9 - - 0.0
16/04:00am 12.7 8.5 3.9 55 4.1 E 15 19 8 10 - - 0.0
16/03:30am 13.0 8.4 3.9 54 4.3 E 17 19 9 10 - - 0.0
16/03:00am 12.2 6.8 4.4 59 3.7 E 22 28 12 15 - - 0.0
16/02:30am 12.3 6.9 4.5 59 3.7 E 22 26 12 14 - - 0.0
16/02:00am 12.4 6.6 4.6 59 3.7 E 24 30 13 16 - - 0.0
16/01:30am 12.5 6.4 4.7 59 3.7 E 26 32 14 17 - - 0.0
16/01:00am 12.7 6.6 4.7 58 3.8 E 26 35 14 19 - - 0.0
16/12:30am 12.7 6.6 4.7 58 3.8 E 26 37 14 20 - - 0.0
16/12:00am 13.0 6.1 4.4 56 4.1 E 30 35 16 19 - - 0.0
 
Date/Time
EST
Temp
°C
App
Temp
°C
Dew
Point
Rel
Hum
%
Delta-T
°C
Wind Press
QNH
hPa
Press
MSL
hPa
Rain
since 9 am
mm
Dir
 
Spd
km/h
Gust
km/h
Spd
kts
Gust
kts
15/11:30pm 12.8 5.9 4.8 58 3.8 E 30 35 16 19 - - 0.0
15/11:00pm 13.1 6.9 4.5 56 4.1 E 26 33 14 18 - - 0.0
15/10:30pm 13.0 5.7 4.7 57 4.0 E 32 37 17 20 - - 0.0
15/10:00pm 12.6 7.3 5.1 60 3.6 ENE 22 32 12 17 - - 0.0
15/09:30pm 12.5 6.1 5.0 60 3.6 ENE 28 33 15 18 - - 0.0
15/09:00pm 12.7 5.8 4.7 58 3.8 ENE 30 37 16 20 - - 0.0
15/08:30pm 13.3 5.9 4.2 54 4.3 ENE 32 37 17 20 - - 0.0
15/08:00pm 13.1 6.6 4.5 56 4.1 ENE 28 32 15 17 - - 0.0
15/07:30pm 13.4 6.1 4.6 55 4.2 ENE 32 39 17 21 - - 0.0
15/07:00pm 13.3 6.4 4.7 56 4.1 ENE 30 35 16 19 - - 0.0
15/06:30pm 13.4 6.6 5.1 57 4.0 ENE 30 37 16 20 - - 0.0
15/06:00pm 13.0 6.3 5.4 60 3.7 ENE 30 41 16 22 - - 0.0
15/05:30pm 13.2 7.4 6.3 63 3.4 E 26 32 14 17 - - 0.0
15/05:00pm 13.2 8.2 6.5 64 3.3 E 22 28 12 15 - - 0.0
15/04:30pm 13.0 7.4 7.0 67 3.0 E 26 32 14 17 - - 0.0
15/04:00pm 13.1 7.4 6.7 65 3.2 ENE 26 30 14 16 - - 0.0
15/03:30pm 13.1 8.3 7.5 69 2.8 ENE 22 26 12 14 - - 0.0
15/03:00pm 13.0 7.2 6.4 64 3.3 ENE 26 33 14 18 - - 0.0
15/02:30pm 12.9 8.5 6.7 66 3.1 ENE 19 24 10 13 - - 0.0
15/02:00pm 12.9 8.7 7.4 69 2.8 NE 19 24 10 13 - - 0.0
15/01:30pm 13.4 9.9 7.0 65 3.2 NE 15 22 8 12 - - 0.0
15/01:00pm 13.8 10.8 7.6 66 3.2 NE 13 17 7 9 - - 0.0
15/12:30pm 14.5 12.0 9.7 73 2.6 NE 13 17 7 9 - - 0.0
15/12:00pm 13.4 10.0 7.6 68 2.9 NE 15 17 8 9 - - 0.0
15/11:30am 14.2 11.5 8.8 70 2.8 NE 13 19 7 10 - - 0.0
15/11:00am 12.2 8.9 8.1 76 2.1 ENE 15 17 8 9 - - 0.0
15/10:30am 11.6 7.4 7.5 76 2.1 ENE 19 22 10 12 - - 0.0
15/10:00am 10.7 6.5 7.6 81 1.5 E 19 24 10 13 - - 0.0
15/09:30am 9.9 5.6 6.8 81 1.5 E 19 22 10 12 - - 0.0
15/09:00am 9.1 5.4 6.5 84 1.3 E 15 19 8 10 - - 0.0
15/08:30am 9.0 5.3 6.3 83 1.3 E 15 17 8 9 - - 0.0
15/08:00am 7.6 4.2 5.9 89 0.8 ENE 13 15 7 8 - - 0.0
15/07:30am 7.6 4.5 5.7 88 0.9 E 11 13 6 7 - - 0.0
15/07:00am 8.3 5.6 5.6 83 1.3 SE 9 11 5 6 - - 0.0
15/06:30am 7.8 5.1 5.8 87 0.9 E 9 9 5 5 - - 0.0
15/06:00am 7.5 4.0 5.5 87 0.9 ESE 13 15 7 8 - - 0.0
15/05:30am 7.0 4.9 5.8 92 0.6 SW 6 11 3 6 - - 0.0
15/05:00am 6.8 3.7 5.7 93 0.5 ENE 11 13 6 7 - - 0.0
15/04:30am 6.3 2.9 5.9 97 0.2 NE 13 15 7 8 - - 0.0
15/04:00am 7.2 3.9 6.5 95 0.3 ENE 13 15 7 8 - - 0.0
15/03:30am 7.9 4.4 5.5 85 1.1 E 13 15 7 8 - - 0.0
15/03:00am 7.8 5.1 5.4 85 1.1 E 9 11 5 6 - - 0.0
15/02:30am 8.4 5.7 5.5 82 1.4 E 9 11 5 6 - - 0.0
15/02:00am 8.9 5.8 5.6 80 1.6 E 11 11 6 6 - - 0.0
15/01:30am 8.8 5.4 5.7 81 1.5 E 13 15 7 8 - - 0.0
15/01:00am 8.6 5.2 5.7 82 1.4 E 13 15 7 8 - - 0.0
15/12:30am 9.0 5.9 5.6 79 1.6 E 11 13 6 7 - - 0.0
15/12:00am 9.1 5.7 5.8 80 1.6 E 13 15 7 8 - - 0.0
 
Date/Time
EST
Temp
°C
App
Temp
°C
Dew
Point
Rel
Hum
%
Delta-T
°C
Wind Press
QNH
hPa
Press
MSL
hPa
Rain
since 9 am
mm
Dir
 
Spd
km/h
Gust
km/h
Spd
kts
Gust
kts
14/11:30pm 9.1 6.1 6.0 81 1.5 E 11 13 6 7 - - 0.0
14/11:00pm 9.5 6.9 6.2 80 1.6 ENE 9 9 5 5 - - 0.0
14/10:30pm 9.7 7.1 6.2 79 1.7 ENE 9 9 5 5 - - 0.0
14/10:00pm 10.0 7.8 6.2 77 1.8 ENE 7 9 4 5 - - 0.0
14/09:30pm 10.7 7.7 6.1 73 2.2 E 11 13 6 7 - - 0.0
14/09:00pm 10.8 8.7 6.0 72 2.3 ENE 6 7 3 4 - - 0.0
14/08:30pm 11.3 9.3 6.2 71 2.5 ENE 6 7 3 4 - - 0.0
14/08:00pm 11.4 10.1 6.1 70 2.6 N 2 4 1 2 - - 0.0
14/07:30pm 12.1 10.5 6.4 68 2.8 N 4 6 2 3 - - 0.0
14/07:00pm 12.1 10.0 5.7 65 3.1 N 6 9 3 5 - - 0.0
14/06:30pm 12.1 9.7 5.3 63 3.3 NW 7 11 4 6 - - 0.0
14/06:00pm 12.5 10.2 5.7 63 3.3 WNW 7 9 4 5 - - 0.0
14/05:30pm 13.5 10.8 5.7 59 3.8 WNW 9 19 5 10 - - 0.0
14/05:00pm 14.3 11.3 6.2 58 4.0 W 11 17 6 9 - - 0.0
14/04:30pm 14.4 11.2 5.0 53 4.6 W 11 17 6 9 - - 0.0
14/04:00pm 15.3 13.2 6.6 56 4.4 W 7 13 4 7 - - 0.0
14/03:30pm 14.7 11.7 6.0 56 4.3 W 11 17 6 9 - - 0.0
14/03:00pm 14.3 11.2 5.7 56 4.2 W 11 17 6 9 - - 0.0
14/02:30pm 14.8 12.8 6.9 59 4.0 WNW 7 13 4 7 - - 0.0
14/02:00pm 13.8 11.3 6.7 62 3.6 W 9 13 5 7 - - 0.0
14/01:30pm 14.3 12.4 8.9 70 2.8 W 9 17 5 9 - - 0.0
14/01:00pm 12.6 9.9 7.3 70 2.7 W 11 17 6 9 - - 0.0
14/12:30pm 12.5 8.9 6.8 68 2.8 W 15 19 8 10 - - 0.0
14/12:00pm 12.0 8.9 7.1 72 2.4 W 13 17 7 9 - - 0.0
14/11:30am 12.9 10.4 8.2 73 2.4 W 11 15 6 8 - - 0.0
14/11:00am 11.8 9.5 7.5 75 2.2 WSW 9 13 5 7 - - 0.0
14/10:30am 12.4 11.2 7.9 74 2.3 S 4 6 2 3 - - 0.0
14/10:00am 12.2 11.1 8.5 78 1.9 W 4 6 2 3 - - 0.0
14/09:30am 12.2 11.6 8.9 80 1.7 NNE 2 4 1 2 - - 0.0
14/09:00am 11.6 10.7 9.3 86 1.2 E 4 6 2 3 - - 0.0
14/08:30am 11.0 9.8 8.1 82 1.5 E 4 6 2 3 - - 0.0
14/08:00am 9.7 8.2 7.0 83 1.3 ESE 4 6 2 3 - - 0.0
14/07:30am 8.9 7.3 6.5 85 1.2 E 4 4 2 2 - - 0.0
14/07:00am 8.4 6.9 6.7 89 0.8 E 4 4 2 2 - - 0.0
14/06:30am 7.0 5.3 6.1 94 0.4 E 4 4 2 2 - - 0.0
14/06:00am 6.4 4.7 5.8 96 0.3 E 4 6 2 3 - - 0.0
14/05:30am 6.0 3.9 5.6 97 0.2 ESE 6 7 3 4 - - 0.0
14/05:00am 6.3 4.0 5.6 95 0.3 E 7 7 4 4 - - 0.0
14/04:30am 6.7 4.7 6.1 96 0.3 E 6 7 3 4 - - 0.0
14/04:00am 6.4 4.3 5.7 95 0.3 E 6 7 3 4 - - 0.0
14/03:30am 6.8 4.7 5.9 94 0.4 E 6 7 3 4 - - 0.0
14/03:00am 7.4 5.7 6.0 91 0.7 E 4 4 2 2 - - 0.0
14/02:30am 7.8 6.1 5.9 88 0.9 E 4 4 2 2 - - 0.0
14/02:00am 7.8 6.5 5.9 88 0.9 SW 2 4 1 2 - - 0.0
14/01:30am 8.2 6.8 5.5 83 1.3 SW 2 4 1 2 - - 0.0
14/01:00am 7.9 5.3 6.0 88 0.9 SW 9 9 5 5 - - 0.0
14/12:30am 7.9 5.8 5.7 86 1.0 WSW 6 6 3 3 - - 0.0
14/12:00am 8.3 6.0 5.8 84 1.2 W 7 7 4 4 - - 0.0
 
Date/Time
EST
Temp
°C
App
Temp
°C
Dew
Point
Rel
Hum
%
Delta-T
°C
Wind Press
QNH
hPa
Press
MSL
hPa
Rain
since 9 am
mm
Dir
 
Spd
km/h
Gust
km/h
Spd
kts
Gust
kts
13/11:30pm 9.0 7.2 5.6 79 1.6 NW 4 6 2 3 - - 0.0
13/11:00pm 9.2 7.1 5.6 78 1.7 NW 6 9 3 5 - - 0.0
13/10:30pm 9.2 6.8 5.4 77 1.8 NW 7 9 4 5 - - 0.0
13/10:00pm 9.0 5.9 5.6 79 1.6 W 11 13 6 7 - - 0.0
13/09:30pm 9.6 7.3 5.6 76 1.9 WNW 7 11 4 6 - - 0.0
13/09:00pm 10.1 7.9 5.5 73 2.2 NW 6 7 3 4 - - 0.0
13/08:30pm 10.0 7.7 5.6 74 2.1 NW 7 11 4 6 - - 0.0
13/08:00pm 10.1 7.0 5.7 74 2.1 WNW 11 15 6 8 - - 0.0
13/07:30pm 10.2 6.4 5.8 74 2.1 WNW 15 17 8 9 - - 0.0

Other Formats:

Comma delimited format used in spreadsheet applications
http://www.bom.gov.au/fwo/IDV60801/IDV60801.94881.axf

JavaScript Object Notation format (JSON) in row-major order
http://www.bom.gov.au/fwo/IDV60801/IDV60801.94881.json